Portada
METAR-TAF:

METAR-TAF

Aeroports :

Khon Kaen, Tailàndia

latitud: 16-26N, longitud: 102-50E, altitud: 165 m

Observació

L'informe es va fer fa 36 minuts, a les 07:00 UTC
Vent 6 kt del Est/Nord-Est, variant entre Nord i Est/Sud-Est
Temperatura 35°C
Humitat 47%
Pressió 1007 hPa
Visibilitat 10 km o més
Escasses núvols a una alçada de 3000 ft
Núvols disperses a una alçada de 7000 ft

METAR: VTUK 230700Z 06006KT 010V120 9999 FEW030 SCT070 35/22 Q1007 NOSIG

Hora: 14:36 (07:36 UTC)

Pronòstic

L'informe es va fer fa 2 hores i 36 minuts, a les 05:00 UTC
Pronòstic vàlid del 23 a les 06 UTC al 24 a les 06 UTC
Vent 4 kt del Sud-Oest
Visibilitat 10 km o més
Escasses núvols a una alçada de 2500 ft

TAF: VTUK 230500Z 2306/2406 23004KT 9999 FEW025

Observacions i pronòstics meteorològics de més de 4000 aeroports (METAR i TAF).

Les estacions disponibles són els punts grocs i vermells al mapa.

Posi el ratolí al punt desitjat per veure el nom de l'estació.

Feu clic per veure les observacions i els pronòstics meteorològics.

Per canviar el mapa: feu clic els botons verds amb una creu de color negre per apropar; al botó verd amb un guió per allunyar la imatge; o en les fletxes verdes per a mapes adjacents.


METAR-TAF: